Time;durP1;ratioP1;P1;durP2;ratioP2;P2;SDS_P1;SDS_P2;PMS_P1;PMS_P2;Temp;Humidity;BMP_temperature;BMP_pressure;BME280_temperature;BME280_humidity;BME280_pressure;Samples;Min_cycle;Max_cycle;Signal;HPM_P1;HPM_P2
2022/11/20 00:01:07;;;;;;;6.13;5.63;;;19.90;41.80;;;;;;4979029;28;20430;-63
2022/11/20 00:03:33;;;;;;;6.77;6.20;;;19.90;41.80;;;;;;4979155;28;20470;-63
2022/11/20 00:06:06;;;;;;;7.33;6.80;;;19.90;41.80;;;;;;4982985;28;20589;-63
2022/11/20 00:08:32;;;;;;;6.13;5.70;;;19.90;41.80;;;;;;4992874;28;20226;-63
2022/11/20 00:11:05;;;;;;;5.30;5.00;;;19.90;41.80;;;;;;4993343;28;20461;-63
2022/11/20 00:13:31;;;;;;;6.90;6.37;;;19.90;41.80;;;;;;4985599;28;20251;-63
2022/11/20 00:15:59;;;;;;;6.13;5.67;;;19.90;41.80;;;;;;4989997;28;20453;-63
2022/11/20 00:18:25;;;;;;;6.30;5.83;;;19.90;41.80;;;;;;4981638;28;20477;-63
2022/11/20 00:20:51;;;;;;;7.00;6.47;;;19.90;41.80;;;;;;4983850;28;20457;-63
2022/11/20 00:23:16;;;;;;;6.63;6.10;;;19.90;41.90;;;;;;4983260;28;20451;-63
2022/11/20 00:25:42;;;;;;;6.60;6.10;;;19.90;41.80;;;;;;4985443;28;20228;-63
2022/11/20 00:28:07;;;;;;;5.80;5.40;;;19.90;41.90;;;;;;4982338;28;20270;-62
2022/11/20 00:30:33;;;;;;;6.37;5.87;;;19.90;41.80;;;;;;4978622;28;20563;-63
2022/11/20 00:32:58;;;;;;;6.53;6.13;;;19.90;41.80;;;;;;4991073;28;20220;-64
2022/11/20 00:35:24;;;;;;;5.90;5.40;;;19.90;41.80;;;;;;4985667;28;20270;-63
2022/11/20 00:37:50;;;;;;;6.43;5.90;;;19.80;41.80;;;;;;4977638;28;21244;-63
2022/11/20 00:40:15;;;;;;;6.00;5.60;;;19.90;41.80;;;;;;4992868;28;20278;-64
2022/11/20 00:42:41;;;;;;;6.23;5.70;;;19.80;41.70;;;;;;5001295;28;20227;-64
2022/11/20 00:45:06;;;;;;;5.93;5.57;;;19.80;41.70;;;;;;4997802;28;20235;-63
2022/11/20 00:47:32;;;;;;;6.07;5.57;;;19.80;41.70;;;;;;5000903;28;20234;-64
2022/11/20 00:49:57;;;;;;;5.83;5.43;;;19.80;41.70;;;;;;4998088;28;20567;-64
2022/11/20 00:52:23;;;;;;;6.30;5.87;;;19.80;41.70;;;;;;4996945;28;20679;-64
2022/11/20 00:54:49;;;;;;;6.93;6.43;;;19.80;41.70;;;;;;4994935;28;20257;-63
2022/11/20 00:57:14;;;;;;;5.30;5.00;;;19.80;41.70;;;;;;4997314;28;20222;-64
2022/11/20 00:59:40;;;;;;;5.90;5.50;;;19.80;41.80;;;;;;4994924;28;20231;-63
2022/11/20 01:02:05;;;;;;;6.13;5.73;;;19.80;41.80;;;;;;4994823;28;20702;-63
2022/11/20 01:04:31;;;;;;;5.80;5.40;;;19.80;41.80;;;;;;4992717;28;20329;-65
2022/11/20 01:06:56;;;;;;;6.00;5.60;;;19.80;42.00;;;;;;4996271;28;20691;-63
2022/11/20 01:09:22;;;;;;;5.23;4.83;;;19.80;41.80;;;;;;4990555;28;20309;-63
2022/11/20 01:11:48;;;;;;;4.90;4.50;;;19.80;41.80;;;;;;4997163;28;20240;-63
2022/11/20 01:14:17;;;;;;;5.50;5.10;;;19.80;48.20;;;;;;4995492;28;20224;-64
2022/11/20 01:16:46;;;;;;;5.73;5.23;;;19.80;41.70;;;;;;4997829;28;20650;-63
2022/11/20 01:19:15;;;;;;;5.83;5.33;;;19.80;41.70;;;;;;4991848;28;20457;-63
2022/11/20 01:21:42;;;;;;;5.17;4.87;;;19.80;41.70;;;;;;4994428;28;20448;-64
2022/11/20 01:24:11;;;;;;;5.90;5.50;;;19.80;41.70;;;;;;4983192;28;20447;-63
2022/11/20 01:26:38;;;;;;;5.77;5.03;;;19.80;41.70;;;;;;4980344;28;20532;-63
2022/11/20 01:29:04;;;;;;;6.40;5.83;;;19.80;41.80;;;;;;4988130;28;20597;-63
2022/11/20 01:31:35;;;;;;;4.83;4.43;;;19.80;41.70;;;;;;4974200;28;20522;-64
2022/11/20 01:34:07;;;;;;;5.27;4.83;;;19.80;41.70;;;;;;4980342;28;20962;-63
2022/11/20 01:36:35;;;;;;;5.80;5.43;;;19.80;41.70;;;;;;4988093;28;20464;-63
2022/11/20 01:39:07;;;;;;;4.93;4.60;;;19.80;41.70;;;;;;4997204;28;20489;-64
2022/11/20 01:44:22;;;;;;;5.63;5.23;;;19.80;41.70;;;;;;4979538;28;20452;-64
2022/11/20 01:46:58;;;;;;;5.70;5.30;;;19.80;41.70;;;;;;4993370;28;20480;-63
2022/11/20 01:49:38;;;;;;;5.60;5.23;;;19.80;41.60;;;;;;4993803;28;20461;-64
2022/11/20 01:52:19;;;;;;;5.03;4.73;;;19.80;41.70;;;;;;4983845;28;21224;-63
2022/11/20 01:54:55;;;;;;;5.30;5.00;;;19.80;41.60;;;;;;4983697;28;20493;-63
2022/11/20 01:57:23;;;;;;;5.17;4.87;;;19.80;41.60;;;;;;4976193;28;20874;-63
2022/11/20 02:00:19;;;;;;;5.40;4.90;;;19.80;41.70;;;;;;4976813;28;20499;-64
2022/11/20 02:03:05;;;;;;;4.97;4.67;;;19.80;41.60;;;;;;4997297;28;20470;-63
2022/11/20 02:05:33;;;;;;;5.70;5.30;;;19.80;41.70;;;;;;4997732;28;20442;-63
2022/11/20 02:07:59;;;;;;;6.70;5.63;;;19.70;41.60;;;;;;4989166;28;20862;-62
2022/11/20 02:10:26;;;;;;;4.87;4.60;;;19.80;41.70;;;;;;4978342;28;20466;-63
2022/11/20 02:15:37;;;;;;;5.30;4.90;;;19.80;41.70;;;;;;4976682;28;20461;-63
2022/11/20 02:18:03;;;;;;;5.50;5.10;;;19.70;41.60;;;;;;4976675;28;20432;-63
2022/11/20 02:20:28;;;;;;;4.63;4.33;;;19.80;41.70;;;;;;4975435;28;20215;-63
2022/11/20 02:22:54;;;;;;;5.50;5.20;;;19.70;41.60;;;;;;5000730;28;20219;-63
2022/11/20 02:25:20;;;;;;;5.50;5.20;;;19.70;41.70;;;;;;4983813;28;20225;-63
2022/11/20 02:27:46;;;;;;;4.80;4.60;;;19.70;41.70;;;;;;4981125;28;20233;-63
2022/11/20 02:30:12;;;;;;;5.03;4.73;;;19.70;41.10;;;;;;4994363;28;20448;-64
2022/11/20 02:32:39;;;;;;;4.67;4.47;;;19.70;41.60;;;;;;4978369;28;20436;-63
2022/11/20 02:35:07;;;;;;;4.70;4.40;;;19.80;41.70;;;;;;4984069;28;20225;-63
2022/11/20 02:37:38;;;;;;;5.10;4.70;;;19.70;41.60;;;;;;4975724;28;20479;-63
2022/11/20 02:40:04;;;;;;;5.10;4.80;;;19.70;41.60;;;;;;4986212;28;20453;-62
2022/11/20 02:42:30;;;;;;;5.10;4.83;;;19.70;41.60;;;;;;4981873;28;20468;-65
2022/11/20 02:44:55;;;;;;;5.10;4.80;;;19.70;41.60;;;;;;4982142;28;20457;-65
2022/11/20 02:47:21;;;;;;;4.70;4.40;;;19.70;41.60;;;;;;4986459;28;20224;-64
2022/11/20 02:49:46;;;;;;;5.50;5.20;;;19.70;41.50;;;;;;4999752;28;20309;-63
2022/11/20 02:52:12;;;;;;;4.77;4.37;;;19.70;41.60;;;;;;4999791;28;20785;-63
2022/11/20 02:54:37;;;;;;;4.80;4.50;;;19.70;41.60;;;;;;4986150;28;20319;-64
2022/11/20 02:57:03;;;;;;;5.07;4.73;;;19.70;41.60;;;;;;4982434;28;20218;-65
2022/11/20 02:59:28;;;;;;;5.60;5.20;;;19.70;41.50;;;;;;4971251;28;20629;-64
2022/11/20 03:01:54;;;;;;;4.23;3.93;;;19.70;41.50;;;;;;4980717;28;20281;-63
2022/11/20 03:04:19;;;;;;;4.77;4.43;;;19.70;41.50;;;;;;4977516;28;20216;-65
2022/11/20 03:06:45;;;;;;;5.10;4.80;;;19.70;41.50;;;;;;4977155;28;20694;-64
2022/11/20 03:09:10;;;;;;;4.47;4.20;;;19.70;41.50;;;;;;4981197;28;20248;-63
2022/11/20 03:11:36;;;;;;;5.43;4.97;;;19.70;41.50;;;;;;4980220;28;20703;-63
2022/11/20 03:14:03;;;;;;;4.90;4.60;;;19.70;41.50;;;;;;4984151;28;20223;-64
2022/11/20 03:16:31;;;;;;;5.00;4.70;;;19.70;41.50;;;;;;4990571;28;20280;-63
2022/11/20 03:18:57;;;;;;;5.30;4.93;;;19.70;41.50;;;;;;4983489;28;20449;-63
2022/11/20 03:21:22;;;;;;;4.70;4.40;;;19.70;41.50;;;;;;4975606;28;20447;-63
2022/11/20 03:23:48;;;;;;;5.00;4.70;;;19.70;41.50;;;;;;4984256;28;20235;-63
2022/11/20 03:26:16;;;;;;;4.20;4.00;;;19.70;41.50;;;;;;4978410;28;20216;-63
2022/11/20 03:28:47;;;;;;;4.23;3.93;;;19.70;41.50;;;;;;4980284;28;20550;-64
2022/11/20 03:31:14;;;;;;;4.77;4.47;;;19.70;41.50;;;;;;4986873;28;20546;-63
2022/11/20 03:33:41;;;;;;;5.10;4.80;;;19.70;41.50;;;;;;4981133;28;20484;-63
2022/11/20 03:36:10;;;;;;;4.80;4.40;;;19.70;41.50;;;;;;4977431;28;20449;-63
2022/11/20 03:38:37;;;;;;;4.93;4.57;;;19.70;41.50;;;;;;4985928;28;20922;-63
2022/11/20 03:41:09;;;;;;;4.00;3.70;;;19.70;41.50;;;;;;4982650;28;20446;-63
2022/11/20 03:43:35;;;;;;;4.13;3.87;;;19.70;41.50;;;;;;4997792;28;20493;-63
2022/11/20 03:46:01;;;;;;;4.77;4.40;;;19.70;41.50;;;;;;5000935;28;20448;-63
2022/11/20 03:48:27;;;;;;;4.80;4.50;;;19.70;41.50;;;;;;5001016;28;20481;-63
2022/11/20 03:51:06;;;;;;;4.67;4.27;;;19.70;41.40;;;;;;4988983;28;20474;-63
2022/11/20 03:53:31;;;;;;;5.27;4.97;;;19.70;41.40;;;;;;4979125;28;21021;-64
2022/11/20 03:55:57;;;;;;;4.63;4.43;;;19.70;41.30;;;;;;4987260;28;20456;-63
2022/11/20 03:58:23;;;;;;;4.87;4.67;;;19.70;41.40;;;;;;4995860;28;20274;-64
2022/11/20 04:00:48;;;;;;;4.57;4.27;;;19.70;41.40;;;;;;4984237;28;20573;-63
2022/11/20 04:03:14;;;;;;;4.60;4.30;;;19.70;41.40;;;;;;4981226;28;20688;-63
2022/11/20 04:05:39;;;;;;;3.70;3.50;;;19.70;41.50;;;;;;4983247;28;20232;-63
2022/11/20 04:08:05;;;;;;;5.00;4.70;;;19.70;44.20;;;;;;4995077;28;20687;-63
2022/11/20 04:10:30;;;;;;;4.60;4.30;;;19.70;44.50;;;;;;4983556;28;20228;-63
2022/11/20 04:12:56;;;;;;;4.13;3.87;;;19.70;42.50;;;;;;4983943;28;20315;-64
2022/11/20 04:15:21;;;;;;;5.43;5.03;;;19.70;41.40;;;;;;4986236;28;20635;-64
2022/11/20 04:17:47;;;;;;;4.37;4.07;;;19.70;41.40;;;;;;4977886;28;20230;-63
2022/11/20 04:20:13;;;;;;;4.20;4.00;;;19.70;41.40;;;;;;4984206;28;20702;-63
2022/11/20 04:22:38;;;;;;;4.00;3.80;;;19.70;41.40;;;;;;4994120;28;20585;-64
2022/11/20 04:25:04;;;;;;;4.50;4.20;;;19.70;41.30;;;;;;4999154;28;20411;-63
2022/11/20 04:27:30;;;;;;;4.67;4.37;;;19.70;41.30;;;;;;4985158;28;20858;-63
2022/11/20 04:29:56;;;;;;;4.10;3.80;;;19.70;41.30;;;;;;4979650;28;20233;-63
2022/11/20 04:32:21;;;;;;;4.50;4.20;;;19.70;41.40;;;;;;4987362;28;20450;-63
2022/11/20 04:34:47;;;;;;;4.73;4.43;;;19.70;41.40;;;;;;4978931;28;20242;-63
2022/11/20 04:37:12;;;;;;;4.87;4.60;;;19.70;41.40;;;;;;4978267;28;20262;-63
2022/11/20 04:39:38;;;;;;;4.23;4.03;;;19.70;41.30;;;;;;4980521;28;20235;-65
2022/11/20 04:44:48;;;;;;;3.90;3.70;;;19.70;41.30;;;;;;4993418;28;20235;-64
2022/11/20 04:47:14;;;;;;;4.20;3.90;;;19.70;41.30;;;;;;4981431;28;20459;-62
2022/11/20 04:49:39;;;;;;;3.87;3.57;;;19.70;41.30;;;;;;4993830;28;20456;-64
2022/11/20 04:52:05;;;;;;;4.30;4.00;;;19.70;41.30;;;;;;4997813;28;20207;-65
2022/11/20 04:54:31;;;;;;;4.53;4.23;;;19.70;41.20;;;;;;4998541;28;20274;-63
2022/11/20 04:56:56;;;;;;;3.70;3.50;;;19.70;41.20;;;;;;4998485;28;20318;-63
2022/11/20 04:59:22;;;;;;;4.10;3.90;;;19.70;41.20;;;;;;4998737;28;20690;-62
2022/11/20 05:01:48;;;;;;;4.10;3.90;;;19.70;41.20;;;;;;4997213;28;20212;-63
2022/11/20 05:04:13;;;;;;;4.80;4.50;;;19.70;41.20;;;;;;4997304;28;20227;-63
2022/11/20 05:06:39;;;;;;;3.90;3.60;;;19.70;41.20;;;;;;4999588;28;23077;-63
2022/11/20 05:09:04;;;;;;;3.97;3.70;;;19.70;41.80;;;;;;4983764;28;20266;-64
2022/11/20 05:11:31;;;;;;;3.30;3.10;;;19.70;41.10;;;;;;4974487;28;20224;-62
2022/11/20 05:13:59;;;;;;;3.70;3.50;;;19.70;41.10;;;;;;4981871;28;20217;-63
2022/11/20 05:16:25;;;;;;;4.73;4.43;;;19.70;41.00;;;;;;4978333;28;20425;-64
2022/11/20 05:18:52;;;;;;;3.97;3.77;;;19.70;41.00;;;;;;4981279;28;20538;-63
2022/11/20 05:21:18;;;;;;;4.27;4.07;;;19.80;41.00;;;;;;4978527;28;20990;-63
2022/11/20 05:23:44;;;;;;;4.50;4.30;;;19.80;41.00;;;;;;4976191;28;20458;-64
2022/11/20 05:26:18;;;;;;;4.73;4.43;;;19.80;41.00;;;;;;4974662;28;20228;-63
2022/11/20 05:28:44;;;;;;;4.83;4.53;;;19.80;40.90;;;;;;4992105;28;20931;-65
2022/11/20 05:31:12;;;;;;;3.70;3.50;;;19.80;41.00;;;;;;4998214;28;20507;-62
2022/11/20 05:33:40;;;;;;;4.20;3.90;;;19.80;40.90;;;;;;4992624;28;20565;-63
2022/11/20 05:36:06;;;;;;;4.07;3.77;;;19.80;40.90;;;;;;4992529;28;20451;-61
2022/11/20 05:38:32;;;;;;;4.00;3.80;;;19.80;40.90;;;;;;4980822;28;20468;-61
2022/11/20 05:41:14;;;;;;;3.90;3.70;;;19.80;40.90;;;;;;4977892;28;20691;-62
2022/11/20 05:43:41;;;;;;;4.03;3.83;;;19.80;40.90;;;;;;4980805;28;20234;-62
2022/11/20 05:46:08;;;;;;;3.60;3.40;;;19.80;40.90;;;;;;4982832;28;20851;-62
2022/11/20 05:48:35;;;;;;;4.27;3.87;;;19.80;40.80;;;;;;4983388;28;20480;-63
2022/11/20 05:51:03;;;;;;;4.20;3.90;;;19.80;40.80;;;;;;4983249;28;20494;-64
2022/11/20 05:53:28;;;;;;;4.10;3.90;;;19.80;40.80;;;;;;4981730;28;20450;-64
2022/11/20 05:56:03;;;;;;;3.77;3.50;;;19.80;40.80;;;;;;4978158;28;20509;-62
2022/11/20 05:58:29;;;;;;;4.10;3.90;;;19.80;40.80;;;;;;4975886;28;20234;-62
2022/11/20 06:00:54;;;;;;;4.37;4.17;;;19.80;40.80;;;;;;4976659;28;20517;-63
2022/11/20 06:03:20;;;;;;;4.00;3.80;;;19.80;40.80;;;;;;4980477;28;20916;-62
2022/11/20 06:05:46;;;;;;;4.13;3.83;;;19.80;40.80;;;;;;4977320;28;20225;-64
2022/11/20 06:08:12;;;;;;;3.80;3.60;;;19.80;40.80;;;;;;4977532;28;20483;-62
2022/11/20 06:10:37;;;;;;;4.67;4.27;;;19.90;41.60;;;;;;4988560;28;20219;-64
2022/11/20 06:13:03;;;;;;;4.70;4.40;;;19.80;40.90;;;;;;4977210;28;20270;-63
2022/11/20 06:15:28;;;;;;;4.20;4.00;;;19.80;40.80;;;;;;4984816;28;20239;-63
2022/11/20 06:17:55;;;;;;;3.60;3.40;;;19.90;40.80;;;;;;4978540;28;20255;-64
2022/11/20 06:20:21;;;;;;;4.00;3.60;;;19.90;40.80;;;;;;4983239;28;20717;-63
2022/11/20 06:22:47;;;;;;;3.90;3.70;;;19.90;40.80;;;;;;4981869;28;20971;-64
2022/11/20 06:25:13;;;;;;;4.33;4.03;;;19.80;40.70;;;;;;4980213;28;20509;-63
2022/11/20 06:27:38;;;;;;;4.07;3.80;;;19.90;40.80;;;;;;4978997;28;20216;-63
2022/11/20 06:30:04;;;;;;;3.57;3.30;;;19.80;40.70;;;;;;4980522;28;20369;-65
2022/11/20 06:32:30;;;;;;;4.27;3.97;;;19.90;40.80;;;;;;4979208;28;20305;-63
2022/11/20 06:34:55;;;;;;;4.20;3.90;;;19.90;40.80;;;;;;4982630;28;20454;-63
2022/11/20 06:37:21;;;;;;;4.20;3.90;;;19.90;40.80;;;;;;4983781;28;20239;-63
2022/11/20 06:39:46;;;;;;;4.33;4.00;;;19.90;40.80;;;;;;4972609;28;20263;-63
2022/11/20 06:42:12;;;;;;;3.93;3.73;;;19.90;40.70;;;;;;4984117;28;20248;-63
2022/11/20 06:44:37;;;;;;;4.10;3.80;;;19.90;40.80;;;;;;4975016;28;20251;-64
2022/11/20 06:47:03;;;;;;;4.03;3.83;;;19.80;40.60;;;;;;4983322;28;20406;-63
2022/11/20 06:49:29;;;;;;;3.60;3.40;;;19.90;40.70;;;;;;4979351;28;20660;-61
2022/11/20 06:51:54;;;;;;;3.83;3.63;;;19.90;40.70;;;;;;4979456;28;20558;-62
2022/11/20 06:54:20;;;;;;;4.17;3.97;;;19.90;40.70;;;;;;4975283;28;20224;-64
2022/11/20 06:56:48;;;;;;;3.47;3.27;;;19.90;40.70;;;;;;4974340;28;20216;-62
2022/11/20 06:59:14;;;;;;;3.90;3.70;;;19.90;40.70;;;;;;4980339;28;20278;-63
2022/11/20 07:01:39;;;;;;;4.03;3.83;;;19.90;40.60;;;;;;4980098;28;20465;-65
2022/11/20 07:04:05;;;;;;;4.40;4.10;;;19.90;40.60;;;;;;4974564;28;20231;-63
2022/11/20 07:06:31;;;;;;;3.93;3.73;;;19.90;40.60;;;;;;4977389;28;20228;-64
2022/11/20 07:08:56;;;;;;;3.63;3.33;;;19.90;40.60;;;;;;4975606;28;20236;-63
2022/11/20 07:11:23;;;;;;;3.90;3.67;;;19.90;40.60;;;;;;4978478;28;20917;-64
2022/11/20 07:13:48;;;;;;;4.00;3.70;;;19.90;40.60;;;;;;4975557;28;20238;-64
2022/11/20 07:16:15;;;;;;;4.13;3.83;;;19.90;40.60;;;;;;4978281;28;20443;-63
2022/11/20 07:18:41;;;;;;;3.73;3.43;;;19.90;40.60;;;;;;4985388;28;20315;-63
2022/11/20 07:21:09;;;;;;;4.27;3.97;;;19.90;40.60;;;;;;4982910;28;20861;-63
2022/11/20 07:23:35;;;;;;;4.10;3.90;;;19.90;40.60;;;;;;4981683;28;20289;-64
2022/11/20 07:26:09;;;;;;;3.73;3.53;;;19.90;40.60;;;;;;4984023;28;20435;-63
2022/11/20 07:28:35;;;;;;;3.80;3.60;;;19.90;40.50;;;;;;4994723;28;20620;-64
2022/11/20 07:31:01;;;;;;;4.30;4.00;;;19.90;40.60;;;;;;4999404;28;21101;-63
2022/11/20 07:33:27;;;;;;;3.90;3.70;;;19.90;40.60;;;;;;4997670;28;20219;-63
2022/11/20 07:35:52;;;;;;;4.13;3.93;;;19.90;40.50;;;;;;4998530;28;20511;-63
2022/11/20 07:38:18;;;;;;;4.30;4.00;;;19.90;40.60;;;;;;4991143;28;20258;-64
2022/11/20 07:40:43;;;;;;;4.50;4.20;;;19.90;40.60;;;;;;4975720;28;20239;-64
2022/11/20 07:43:09;;;;;;;4.10;3.80;;;19.90;40.60;;;;;;4975182;28;20482;-63
2022/11/20 07:45:34;;;;;;;3.87;3.67;;;19.90;40.60;;;;;;4979589;28;20379;-64
2022/11/20 07:48:00;;;;;;;3.63;3.43;;;19.90;40.50;;;;;;4975704;28;20611;-65
2022/11/20 07:50:25;;;;;;;4.23;3.97;;;19.90;40.50;;;;;;4979139;28;20246;-65
2022/11/20 07:52:52;;;;;;;3.53;3.33;;;19.90;40.50;;;;;;4979098;28;20687;-65
2022/11/20 07:55:17;;;;;;;3.67;3.47;;;19.90;41.30;;;;;;4981493;28;20246;-65
2022/11/20 07:57:43;;;;;;;4.60;4.30;;;19.90;40.50;;;;;;4984860;28;20448;-65
2022/11/20 08:00:11;;;;;;;4.10;3.90;;;19.90;40.50;;;;;;4980822;28;20233;-64
2022/11/20 08:02:40;;;;;;;4.00;3.70;;;19.90;40.50;;;;;;4989087;28;20224;-65
2022/11/20 08:05:07;;;;;;;3.93;3.57;;;19.90;40.50;;;;;;4979170;28;20520;-64
2022/11/20 08:07:37;;;;;;;4.10;3.70;;;19.90;40.50;;;;;;4978038;28;20481;-63
2022/11/20 08:10:03;;;;;;;3.90;3.70;;;19.90;40.50;;;;;;4979390;28;20773;-63
2022/11/20 08:15:13;;;;;;;3.60;3.40;;;19.90;40.50;;;;;;4981395;28;20266;-64
2022/11/20 08:17:39;;;;;;;3.77;3.53;;;19.90;40.50;;;;;;4993019;28;20459;-64
2022/11/20 08:20:04;;;;;;;5.13;4.60;;;19.90;40.50;;;;;;4989038;28;20229;-64
2022/11/20 08:22:30;;;;;;;4.17;3.87;;;19.90;40.40;;;;;;4999109;28;20223;-65
2022/11/20 08:24:55;;;;;;;4.33;4.03;;;19.90;40.50;;;;;;5002524;28;20447;-65
2022/11/20 08:27:21;;;;;;;4.47;4.17;;;19.90;40.50;;;;;;5002310;28;20231;-65
2022/11/20 08:29:47;;;;;;;3.87;3.57;;;19.90;40.50;;;;;;5000657;28;20600;-65
2022/11/20 08:32:12;;;;;;;3.53;3.33;;;19.90;40.50;;;;;;4994754;28;20275;-65
2022/11/20 08:34:38;;;;;;;4.20;3.83;;;19.90;40.50;;;;;;4981462;28;20216;-65
2022/11/20 08:37:03;;;;;;;3.97;3.73;;;19.90;40.50;;;;;;4980881;28;20220;-64
2022/11/20 08:39:29;;;;;;;3.90;3.60;;;19.90;40.50;;;;;;4978738;28;20305;-64
2022/11/20 08:41:54;;;;;;;3.70;3.50;;;19.90;40.50;;;;;;4973374;28;21224;-65
2022/11/20 08:44:20;;;;;;;4.47;4.20;;;19.90;40.60;;;;;;4994153;28;20231;-66
2022/11/20 08:46:46;;;;;;;3.87;3.63;;;19.90;40.60;;;;;;4991215;28;20664;-67
2022/11/20 08:49:13;;;;;;;3.90;3.70;;;19.90;40.50;;;;;;4999821;28;20246;-66
2022/11/20 08:51:40;;;;;;;4.60;4.20;;;19.90;40.50;;;;;;5000944;28;20449;-66
2022/11/20 08:54:06;;;;;;;3.97;3.77;;;19.90;40.50;;;;;;5002054;28;20458;-65
2022/11/20 08:56:32;;;;;;;3.67;3.47;;;19.90;40.50;;;;;;5002083;28;20507;-65
2022/11/20 08:58:59;;;;;;;3.77;3.43;;;19.90;40.50;;;;;;4993960;28;21017;-65
2022/11/20 09:01:25;;;;;;;3.97;3.67;;;19.90;40.60;;;;;;4989286;28;20253;-62
2022/11/20 09:03:51;;;;;;;4.30;3.93;;;19.90;40.60;;;;;;4981483;28;20459;-63
2022/11/20 09:06:16;;;;;;;4.40;4.10;;;19.90;40.50;;;;;;4991844;28;20551;-64
2022/11/20 09:08:42;;;;;;;4.23;4.03;;;19.90;40.60;;;;;;4995431;28;20239;-65
2022/11/20 09:11:08;;;;;;;4.13;3.40;;;19.90;40.60;;;;;;4992797;28;20224;-64
2022/11/20 09:13:35;;;;;;;4.53;4.23;;;19.90;40.60;;;;;;4977990;28;20603;-65
2022/11/20 09:16:04;;;;;;;4.60;4.30;;;19.90;40.60;;;;;;4975729;28;20472;-65
2022/11/20 09:18:31;;;;;;;4.43;4.10;;;19.80;40.50;;;;;;4985098;28;20465;-69
2022/11/20 09:20:58;;;;;;;4.20;4.00;;;19.80;41.30;;;;;;4979782;28;20462;-74
2022/11/20 09:23:25;;;;;;;4.27;3.97;;;19.80;40.50;;;;;;4997955;28;20465;-62
2022/11/20 09:25:50;;;;;;;3.80;3.60;;;19.80;40.50;;;;;;5001809;28;20535;-62
2022/11/20 09:28:18;;;;;;;4.30;4.00;;;19.80;40.50;;;;;;4995181;28;20489;-62
2022/11/20 09:30:43;;;;;;;4.47;4.07;;;19.80;40.50;;;;;;4992708;28;20212;-64
2022/11/20 09:33:09;;;;;;;6.73;4.47;;;19.80;40.50;;;;;;4983977;28;20419;-62
2022/11/20 09:35:35;;;;;;;3.90;3.60;;;19.80;40.50;;;;;;4982164;28;20232;-61
2022/11/20 09:38:07;;;;;;;3.93;3.67;;;19.80;40.50;;;;;;4979352;28;20268;-61
2022/11/20 09:40:34;;;;;;;4.27;3.70;;;19.80;40.50;;;;;;4980732;28;20266;-62
2022/11/20 09:43:18;;;;;;;4.40;4.20;;;19.80;40.50;;;;;;4988250;28;20507;-63
2022/11/20 09:45:55;;;;;;;5.23;4.50;;;19.80;40.50;;;;;;4983236;28;20492;-62
2022/11/20 09:48:59;;;;;;;3.73;3.40;;;19.80;40.50;;;;;;4998877;28;20921;-62
2022/11/20 09:51:52;;;;;;;4.20;3.80;;;19.80;40.50;;;;;;4981483;28;20474;-62
2022/11/20 09:54:26;;;;;;;4.37;3.97;;;19.80;40.50;;;;;;4981007;28;20452;-63
2022/11/20 09:57:02;;;;;;;4.13;3.83;;;19.80;40.50;;;;;;4990205;28;20512;-62
2022/11/20 09:59:59;;;;;;;3.70;3.37;;;19.80;40.50;;;;;;4987049;28;20439;-62
2022/11/20 10:02:37;;;;;;;4.00;3.80;;;19.80;40.50;;;;;;4976560;28;20531;-63
2022/11/20 10:05:24;;;;;;;4.03;3.73;;;19.80;40.50;;;;;;4985021;28;20558;-62
2022/11/20 10:08:14;;;;;;;4.20;3.80;;;19.80;40.50;;;;;;4997883;28;20475;-62
2022/11/20 10:11:01;;;;;;;3.47;3.23;;;19.80;40.50;;;;;;5000235;28;20969;-62
2022/11/20 10:13:45;;;;;;;6.03;3.70;;;19.80;40.40;;;;;;4993319;28;20440;-63
2022/11/20 10:16:19;;;;;;;4.30;3.90;;;19.80;40.40;;;;;;4983595;28;20439;-62
2022/11/20 10:19:21;;;;;;;4.23;3.93;;;19.80;40.30;;;;;;4979208;28;20791;-63
2022/11/20 10:21:53;;;;;;;4.30;3.90;;;19.80;40.30;;;;;;4977199;28;20505;-62
2022/11/20 10:24:46;;;;;;;3.87;3.67;;;19.80;40.30;;;;;;4976283;28;20476;-62
2022/11/20 10:27:39;;;;;;;4.10;3.67;;;19.80;40.30;;;;;;4976993;28;20465;-62
2022/11/20 10:30:14;;;;;;;3.83;3.63;;;19.80;40.30;;;;;;4996568;28;20868;-62
2022/11/20 10:32:46;;;;;;;3.90;3.60;;;19.80;40.30;;;;;;4984493;28;21183;-62
2022/11/20 10:35:50;;;;;;;4.20;3.90;;;19.80;40.30;;;;;;4982073;28;21035;-62
2022/11/20 10:38:22;;;;;;;4.70;4.40;;;19.80;40.30;;;;;;4978976;28;20475;-62
2022/11/20 10:41:24;;;;;;;4.13;3.83;;;19.80;40.30;;;;;;4984255;28;20446;-62
2022/11/20 10:43:46;;;;;;;4.37;4.10;;;19.80;40.20;;;;;;4997672;28;20784;-62
2022/11/20 10:46:43;;;;;;;3.20;3.00;;;19.80;40.20;;;;;;5001111;28;20454;-63
2022/11/20 10:49:18;;;;;;;4.13;3.93;;;19.80;40.20;;;;;;4996047;28;20932;-64
2022/11/20 10:52:13;;;;;;;4.37;4.00;;;19.80;40.30;;;;;;4982183;28;20439;-62
2022/11/20 10:55:00;;;;;;;3.93;3.73;;;19.80;40.20;;;;;;4981169;28;20461;-63
2022/11/20 10:57:46;;;;;;;4.23;4.03;;;19.80;40.20;;;;;;4979811;28;20440;-62
2022/11/20 11:00:13;;;;;;;3.90;3.60;;;19.80;40.20;;;;;;4998635;28;20460;-62
2022/11/20 11:02:43;;;;;;;4.37;4.10;;;19.80;40.20;;;;;;5000548;28;20431;-63
2022/11/20 11:05:11;;;;;;;4.57;4.17;;;19.70;40.70;;;;;;4996999;28;20573;-63
2022/11/20 11:07:39;;;;;;;4.07;3.80;;;19.80;40.20;;;;;;4999025;28;20460;-63
2022/11/20 11:10:16;;;;;;;4.00;3.67;;;19.80;40.20;;;;;;4985531;28;23493;-62
2022/11/20 11:12:49;;;;;;;4.70;4.33;;;19.80;40.10;;;;;;4985736;28;20508;-62
2022/11/20 11:15:39;;;;;;;4.00;3.80;;;19.80;40.10;;;;;;4986533;28;20479;-64
2022/11/20 11:18:08;;;;;;;4.13;3.83;;;19.80;40.10;;;;;;4982000;28;20470;-63
2022/11/20 11:20:34;;;;;;;3.60;3.30;;;19.80;40.10;;;;;;4975695;28;20520;-62
2022/11/20 11:23:00;;;;;;;7.03;5.00;;;19.80;40.00;;;;;;4975949;28;20896;-63
2022/11/20 11:25:36;;;;;;;6.20;3.87;;;19.80;40.00;;;;;;4994376;28;20219;-63
2022/11/20 11:28:17;;;;;;;6.60;3.73;;;19.80;39.90;;;;;;4994641;28;20230;-60
2022/11/20 11:30:44;;;;;;;3.90;3.70;;;19.80;40.10;;;;;;4980435;28;21288;-61
2022/11/20 11:33:18;;;;;;;5.00;4.60;;;19.80;40.00;;;;;;4988581;28;20432;-62
2022/11/20 11:35:58;;;;;;;4.37;4.07;;;19.80;40.00;;;;;;4994991;28;20460;-63
2022/11/20 11:38:42;;;;;;;4.60;4.30;;;19.80;40.00;;;;;;4985976;28;20511;-62
2022/11/20 11:41:17;;;;;;;5.83;5.00;;;19.80;40.00;;;;;;4976798;28;20458;-63
2022/11/20 11:46:49;;;;;;;5.73;5.03;;;19.80;40.10;;;;;;4996151;28;20463;-63
2022/11/20 11:49:18;;;;;;;6.10;5.57;;;19.70;40.10;;;;;;4981246;28;20470;-62
2022/11/20 11:52:16;;;;;;;6.70;6.20;;;19.80;40.10;;;;;;4998592;28;20452;-62
2022/11/20 11:54:52;;;;;;;7.50;6.43;;;19.80;40.20;;;;;;4972690;28;20418;-62
2022/11/20 11:57:51;;;;;;;10.90;6.70;;;19.70;40.10;;;;;;4994134;28;21240;-62
2022/11/20 12:00:20;;;;;;;10.13;7.27;;;19.80;40.10;;;;;;4980312;28;20462;-62
2022/11/20 12:02:45;;;;;;;9.40;6.33;;;19.70;40.10;;;;;;4979529;28;21266;-63
2022/11/20 12:05:22;;;;;;;6.70;6.10;;;19.70;40.20;;;;;;4981479;28;20474;-62
2022/11/20 12:07:58;;;;;;;7.53;6.87;;;19.70;40.20;;;;;;4983600;28;20266;-63
2022/11/20 12:10:37;;;;;;;7.30;6.67;;;19.70;40.20;;;;;;4986703;28;20459;-63
2022/11/20 12:13:38;;;;;;;17.10;9.27;;;19.70;40.20;;;;;;4999496;28;21075;-62
2022/11/20 12:16:04;;;;;;;7.57;6.80;;;19.70;40.30;;;;;;4974841;28;20549;-64
2022/11/20 12:18:30;;;;;;;10.27;7.17;;;19.70;40.30;;;;;;4991999;28;20885;-63
2022/11/20 12:21:17;;;;;;;10.00;6.77;;;19.70;40.20;;;;;;4994744;28;20423;-62
2022/11/20 12:24:09;;;;;;;8.20;7.40;;;19.70;40.30;;;;;;5003032;28;20460;-62
2022/11/20 12:26:55;;;;;;;8.23;7.43;;;19.70;40.30;;;;;;4996233;28;20871;-62
2022/11/20 12:29:47;;;;;;;11.33;8.00;;;19.70;40.30;;;;;;5000364;28;20558;-62
2022/11/20 12:32:15;;;;;;;16.87;8.40;;;19.70;40.30;;;;;;5000132;28;20475;-62
2022/11/20 12:35:00;;;;;;;7.63;6.63;;;19.70;40.30;;;;;;4987274;28;20468;-62
2022/11/20 12:37:53;;;;;;;8.00;7.20;;;19.70;40.30;;;;;;4998292;28;20536;-62
2022/11/20 12:40:53;;;;;;;11.70;7.53;;;19.70;40.40;;;;;;4999349;28;20547;-63
2022/11/20 12:46:30;;;;;;;7.80;7.10;;;19.70;40.40;;;;;;4981587;28;20496;-63
2022/11/20 12:49:29;;;;;;;13.13;7.00;;;19.70;40.40;;;;;;4983743;28;20468;-63
2022/11/20 12:52:04;;;;;;;8.97;7.03;;;19.70;40.40;;;;;;4998599;28;20844;-63
2022/11/20 12:54:54;;;;;;;7.67;6.77;;;19.70;40.40;;;;;;4980385;28;20448;-62
2022/11/20 12:57:28;;;;;;;9.80;7.33;;;19.70;40.40;;;;;;4979888;28;20497;-63
2022/11/20 13:00:07;;;;;;;8.00;7.20;;;19.70;40.50;;;;;;4977898;28;20443;-62
2022/11/20 13:03:19;;;;;;;10.83;7.77;;;19.70;40.40;;;;;;4980300;28;20495;-62
2022/11/20 13:06:05;;;;;;;8.27;7.40;;;19.70;40.40;;;;;;4989672;28;20442;-64
2022/11/20 13:08:39;;;;;;;8.93;7.33;;;19.70;40.50;;;;;;4996975;28;20473;-62
2022/11/20 13:11:17;;;;;;;8.30;7.43;;;19.70;40.50;;;;;;4984297;28;20458;-63
2022/11/20 13:13:56;;;;;;;9.40;7.20;;;19.70;40.40;;;;;;4979855;28;20433;-63
2022/11/20 13:16:38;;;;;;;7.97;7.10;;;19.70;40.40;;;;;;4980496;28;20508;-63
2022/11/20 13:19:05;;;;;;;8.50;7.43;;;19.70;40.50;;;;;;4990806;28;20444;-63